createdAt,value
2019-05-26T00:00:33.488Z,0.00
2019-05-26T00:01:33.377Z,0.00
2019-05-26T00:02:33.302Z,0.00
2019-05-26T00:03:33.192Z,0.00
2019-05-26T00:04:33.091Z,0.00
2019-05-26T00:05:33.014Z,0.00
2019-05-26T00:06:32.900Z,0.00
2019-05-26T00:07:32.804Z,0.00
2019-05-26T00:08:32.710Z,0.00
2019-05-26T00:09:32.616Z,0.00
2019-05-26T00:10:32.531Z,0.00
2019-05-26T00:11:32.424Z,0.00
2019-05-26T00:12:32.329Z,0.00
2019-05-26T00:13:32.239Z,0.00
2019-05-26T00:14:32.137Z,0.00
2019-05-26T00:15:32.056Z,0.00
2019-05-26T00:16:31.950Z,0.00
2019-05-26T00:17:31.853Z,0.00
2019-05-26T00:18:33.425Z,0.00
2019-05-26T00:19:31.663Z,0.00
2019-05-26T00:20:31.581Z,0.00
2019-05-26T00:21:31.473Z,0.00
2019-05-26T00:22:31.375Z,0.00
2019-05-26T00:23:31.279Z,0.00
2019-05-26T00:24:31.184Z,0.00
2019-05-26T00:25:31.107Z,0.00
2019-05-26T00:26:30.996Z,0.00
2019-05-26T00:27:30.901Z,0.00
2019-05-26T00:28:30.804Z,0.00
2019-05-26T00:29:30.752Z,0.00
2019-05-26T00:30:30.626Z,0.00
2019-05-26T00:31:30.517Z,0.00
2019-05-26T00:32:30.433Z,0.00
2019-05-26T00:33:30.336Z,0.00
2019-05-26T00:34:30.232Z,0.00
2019-05-26T00:35:30.152Z,0.00
2019-05-26T00:36:30.045Z,0.00
2019-05-26T00:37:45.662Z,0.00
2019-05-26T00:38:29.850Z,0.00
2019-05-26T00:39:29.757Z,0.00
2019-05-26T00:40:29.676Z,0.00
2019-05-26T00:41:29.568Z,0.00
2019-05-26T00:42:29.470Z,0.00
2019-05-26T00:43:29.373Z,0.00
2019-05-26T00:44:29.280Z,0.00
2019-05-26T00:45:29.197Z,0.00
2019-05-26T00:46:29.085Z,0.00
2019-05-26T00:47:28.990Z,0.00
2019-05-26T00:48:28.894Z,0.00
2019-05-26T00:49:28.799Z,0.00
2019-05-26T00:50:28.718Z,0.00
2019-05-26T00:51:28.607Z,0.00
2019-05-26T00:52:28.512Z,0.00
2019-05-26T00:53:28.423Z,0.00
2019-05-26T00:54:28.322Z,0.00
2019-05-26T00:55:28.238Z,0.00
2019-05-26T00:56:28.128Z,0.00
2019-05-26T00:57:28.035Z,0.00
2019-05-26T00:58:27.937Z,0.00
2019-05-26T00:59:27.857Z,0.00
2019-05-26T01:00:27.747Z,0.00
2019-05-26T01:01:27.667Z,0.00
2019-05-26T01:02:27.557Z,0.00
2019-05-26T01:03:27.459Z,0.00
2019-05-26T01:04:27.420Z,0.00
2019-05-26T01:05:27.267Z,0.00
2019-05-26T01:06:27.184Z,0.00
2019-05-26T01:07:27.075Z,0.00
2019-05-26T01:08:26.980Z,0.00
2019-05-26T01:09:26.883Z,0.00
2019-05-26T01:10:26.813Z,0.00
2019-05-26T01:11:26.705Z,0.00
2019-05-26T01:12:26.597Z,0.00
2019-05-26T01:13:26.501Z,0.00
2019-05-26T01:14:26.405Z,0.00
2019-05-26T01:15:26.309Z,0.00
2019-05-26T01:16:26.227Z,0.00
2019-05-26T01:17:26.122Z,0.00
2019-05-26T01:18:26.022Z,0.00
2019-05-26T01:19:25.926Z,0.00
2019-05-26T01:20:25.831Z,0.00
2019-05-26T01:21:25.772Z,0.00
2019-05-26T01:22:25.742Z,0.00
2019-05-26T01:23:25.544Z,0.00
2019-05-26T01:24:25.496Z,0.00
2019-05-26T01:25:25.351Z,0.00
2019-05-26T01:26:25.267Z,0.00
2019-05-26T01:27:25.159Z,0.00
2019-05-26T01:28:25.062Z,0.00
2019-05-26T01:29:25.079Z,0.00
2019-05-26T01:30:24.873Z,0.00
2019-05-26T01:31:24.789Z,0.00
2019-05-26T01:32:24.679Z,0.00
2019-05-26T01:33:24.584Z,0.00
2019-05-26T01:34:24.488Z,0.00
2019-05-26T01:35:24.394Z,0.00
2019-05-26T01:36:24.411Z,0.00
2019-05-26T01:37:24.200Z,0.00
2019-05-26T01:38:24.663Z,0.00
2019-05-26T01:39:24.008Z,0.00
2019-05-26T01:40:23.909Z,0.00
2019-05-26T01:41:23.826Z,0.00
2019-05-26T01:42:23.714Z,0.00
2019-05-26T01:43:23.723Z,0.00
2019-05-26T01:44:23.522Z,0.00
2019-05-26T01:45:23.426Z,0.00
2019-05-26T01:46:23.344Z,0.00
2019-05-26T01:47:23.236Z,0.00
2019-05-26T01:48:23.139Z,0.00
2019-05-26T01:49:23.047Z,0.00
2019-05-26T01:50:23.046Z,0.00
2019-05-26T01:51:22.868Z,0.00
2019-05-26T01:52:22.756Z,0.00
2019-05-26T01:53:22.660Z,0.00
2019-05-26T01:54:22.561Z,0.00
2019-05-26T01:55:22.465Z,0.00
2019-05-26T01:56:22.370Z,0.00
2019-05-26T01:57:22.410Z,0.00
2019-05-26T01:58:22.175Z,0.00
2019-05-26T01:59:22.080Z,0.00
2019-05-26T02:00:21.983Z,0.00
2019-05-26T02:01:21.888Z,0.00
2019-05-26T02:02:21.807Z,0.00
2019-05-26T02:03:21.693Z,0.00
2019-05-26T02:04:21.698Z,0.00
2019-05-26T02:05:21.504Z,0.00
2019-05-26T02:06:21.407Z,0.00
2019-05-26T02:07:21.325Z,0.00
2019-05-26T02:08:21.217Z,0.00
2019-05-26T02:09:21.115Z,0.00
2019-05-26T02:10:21.018Z,0.00
2019-05-26T02:11:21.033Z,0.00
2019-05-26T02:12:20.842Z,0.00
2019-05-26T02:13:20.733Z,0.00
2019-05-26T02:14:20.633Z,0.00
2019-05-26T02:15:20.542Z,0.00
2019-05-26T02:16:20.440Z,0.00
2019-05-26T02:17:20.375Z,0.00
2019-05-26T02:18:20.350Z,0.00
2019-05-26T02:19:20.150Z,0.00
2019-05-26T02:20:20.054Z,0.00
2019-05-26T02:21:19.958Z,0.00
2019-05-26T02:22:19.875Z,0.00
2019-05-26T02:23:19.765Z,0.00
2019-05-26T02:24:19.671Z,0.00
2019-05-26T02:25:19.679Z,0.00
2019-05-26T02:26:19.476Z,0.00
2019-05-26T02:27:19.393Z,0.00
2019-05-26T02:28:19.289Z,0.00
2019-05-26T02:29:19.190Z,0.00
2019-05-26T02:30:19.097Z,0.00
2019-05-26T02:31:18.994Z,0.00
2019-05-26T02:32:19.025Z,0.00
2019-05-26T02:33:18.803Z,4.00
2019-05-26T02:34:18.709Z,4.00
2019-05-26T02:35:18.626Z,0.00
2019-05-26T02:36:18.514Z,4.00
2019-05-26T02:37:18.433Z,4.00
2019-05-26T02:38:18.455Z,0.00
2019-05-26T02:39:18.245Z,4.00
2019-05-26T02:40:18.130Z,8.00
2019-05-26T02:41:18.052Z,4.00
2019-05-26T02:42:17.953Z,4.00
2019-05-26T02:43:17.841Z,8.00
2019-05-26T02:44:17.744Z,12.00
2019-05-26T02:45:17.666Z,8.00
2019-05-26T02:46:17.654Z,12.00
2019-05-26T02:47:17.458Z,16.00
2019-05-26T02:48:17.374Z,16.00
2019-05-26T02:49:17.265Z,20.00
2019-05-26T02:50:17.167Z,24.00
2019-05-26T02:51:17.081Z,24.00
2019-05-26T02:52:16.979Z,28.00
2019-05-26T02:53:16.897Z,36.00
2019-05-26T02:54:16.806Z,40.00
2019-05-26T02:55:16.688Z,44.00
2019-05-26T02:56:16.595Z,52.00
2019-05-26T02:57:16.495Z,56.00
2019-05-26T02:58:16.422Z,64.00
2019-05-26T02:59:16.301Z,72.00
2019-05-26T03:00:16.208Z,80.00
2019-05-26T03:01:16.111Z,92.00
2019-05-26T03:02:16.017Z,100.00
2019-05-26T03:03:15.944Z,116.00
2019-05-26T03:04:15.822Z,128.00
2019-05-26T03:05:15.726Z,144.00
2019-05-26T03:06:15.627Z,156.00
2019-05-26T03:07:15.536Z,172.00
2019-05-26T03:08:15.453Z,188.00
2019-05-26T03:09:22.774Z,204.00
2019-05-26T03:10:15.273Z,228.00
2019-05-26T03:11:15.149Z,252.00
2019-05-26T03:12:15.052Z,272.00
2019-05-26T03:13:14.970Z,292.00
2019-05-26T03:14:14.860Z,316.00
2019-05-26T03:15:14.765Z,332.00
2019-05-26T03:16:14.669Z,356.00
2019-05-26T03:17:14.572Z,372.00
2019-05-26T03:18:14.508Z,392.00
2019-05-26T03:19:14.379Z,424.00
2019-05-26T03:20:14.300Z,448.00
2019-05-26T03:21:14.188Z,472.00
2019-05-26T03:22:14.091Z,500.00
2019-05-26T03:23:14.021Z,528.00
2019-05-26T03:24:13.900Z,548.00
2019-05-26T03:25:13.804Z,572.00
2019-05-26T03:26:13.710Z,616.00
2019-05-26T03:27:13.612Z,664.00
2019-05-26T03:28:13.528Z,704.00
2019-05-26T03:29:13.530Z,744.00
2019-05-26T03:30:13.345Z,780.00
2019-05-26T03:31:13.265Z,804.00
2019-05-26T03:32:13.132Z,832.00
2019-05-26T03:33:13.049Z,876.00
2019-05-26T03:34:12.947Z,912.00
2019-05-26T03:35:12.865Z,956.00
2019-05-26T03:36:12.762Z,1000.00
2019-05-26T03:37:12.653Z,1044.00
2019-05-26T03:38:12.567Z,1096.00
2019-05-26T03:39:12.462Z,1132.00
2019-05-26T03:40:12.363Z,1172.00
2019-05-26T03:41:12.267Z,1188.00
2019-05-26T03:42:12.168Z,1240.00
2019-05-26T03:43:12.089Z,1316.00
2019-05-26T03:44:11.976Z,1380.00
2019-05-26T03:45:11.879Z,1424.00
2019-05-26T03:46:11.790Z,1472.00
2019-05-26T03:47:16.429Z,1548.00
2019-05-26T03:48:11.613Z,1620.00
2019-05-26T03:49:11.526Z,1680.00
2019-05-26T03:50:11.399Z,1712.00
2019-05-26T03:51:11.305Z,1780.00
2019-05-26T03:52:11.217Z,1864.00
2019-05-26T03:53:11.114Z,1916.00
2019-05-26T03:54:11.031Z,2000.00
2019-05-26T03:55:10.919Z,2076.00
2019-05-26T03:56:10.827Z,2180.00
2019-05-26T03:57:10.731Z,2312.00
2019-05-26T03:58:10.633Z,2344.00
2019-05-26T03:59:10.548Z,2324.00
2019-05-26T04:00:10.441Z,2396.00
2019-05-26T04:01:10.350Z,2512.00
2019-05-26T04:02:10.256Z,2536.00
2019-05-26T04:03:10.152Z,2736.00
2019-05-26T04:04:10.072Z,2920.00
2019-05-26T04:05:09.960Z,2984.00
2019-05-26T04:06:09.867Z,2884.00
2019-05-26T04:07:09.768Z,3152.00
2019-05-26T04:08:09.669Z,3104.00
2019-05-26T04:09:09.718Z,3160.00
2019-05-26T04:10:09.479Z,3164.00
2019-05-26T04:11:09.428Z,3312.00
2019-05-26T04:12:09.289Z,3708.00
2019-05-26T04:13:09.194Z,3836.00
2019-05-26T04:14:09.110Z,3776.00
2019-05-26T04:15:08.999Z,3764.00
2019-05-26T04:16:09.014Z,3720.00
2019-05-26T04:17:08.809Z,3948.00
2019-05-26T04:18:08.711Z,4140.00
2019-05-26T04:19:08.631Z,4016.00
2019-05-26T04:20:08.519Z,4148.00
2019-05-26T04:21:08.426Z,4108.00
2019-05-26T04:22:08.335Z,4216.00
2019-05-26T04:23:08.349Z,4468.00
2019-05-26T04:24:08.151Z,4700.00
2019-05-26T04:25:08.041Z,4768.00
2019-05-26T04:26:07.949Z,4908.00
2019-05-26T04:27:07.858Z,5692.00
2019-05-26T04:28:07.753Z,5768.00
2019-05-26T04:29:07.659Z,5856.00
2019-05-26T04:30:07.681Z,5828.00
2019-05-26T04:31:07.468Z,6092.00
2019-05-26T04:32:07.373Z,6328.00
2019-05-26T04:33:07.274Z,6412.00
2019-05-26T04:34:07.195Z,6456.00
2019-05-26T04:35:07.104Z,6504.00
2019-05-26T04:36:06.987Z,6528.00
2019-05-26T04:37:06.996Z,6580.00
2019-05-26T04:38:06.798Z,6528.00
2019-05-26T04:39:06.699Z,6680.00
2019-05-26T04:40:25.147Z,6968.00
2019-05-26T04:41:06.508Z,6972.00
2019-05-26T04:42:06.417Z,7080.00
2019-05-26T04:43:06.314Z,7108.00
2019-05-26T04:44:06.328Z,6856.00
2019-05-26T04:45:06.240Z,6772.00
2019-05-26T04:46:06.031Z,7028.00
2019-05-26T04:47:05.931Z,7524.00
2019-05-26T04:48:05.838Z,8028.00
2019-05-26T04:49:05.741Z,8416.00
2019-05-26T04:50:05.664Z,8340.00
2019-05-26T04:51:05.658Z,8600.00
2019-05-26T04:52:05.459Z,8864.00
2019-05-26T04:53:07.207Z,8504.00
2019-05-26T04:54:05.269Z,7712.00
2019-05-26T04:55:05.181Z,7340.00
2019-05-26T04:56:05.071Z,7372.00
2019-05-26T04:57:04.983Z,7664.00
2019-05-26T04:58:05.009Z,7344.00
2019-05-26T04:59:04.786Z,6752.00
2019-05-26T05:00:04.723Z,6564.00
2019-05-26T05:01:04.595Z,6604.00
2019-05-26T05:02:04.506Z,6636.00
2019-05-26T05:03:04.407Z,6912.00
2019-05-26T05:04:04.313Z,6864.00
2019-05-26T05:05:04.338Z,6640.00
2019-05-26T05:06:04.121Z,6268.00
2019-05-26T05:07:04.026Z,6364.00
2019-05-26T05:08:03.931Z,6424.00
2019-05-26T05:09:03.835Z,6220.00
2019-05-26T05:10:03.753Z,6236.00
2019-05-26T05:11:03.643Z,6548.00
2019-05-26T05:12:03.656Z,6892.00
2019-05-26T05:13:03.474Z,6308.00
2019-05-26T05:14:03.360Z,6252.00
2019-05-26T05:15:03.282Z,6344.00
2019-05-26T05:16:03.181Z,6760.00
2019-05-26T05:17:03.088Z,6432.00
2019-05-26T05:18:02.981Z,7144.00
2019-05-26T05:19:02.992Z,10068.00
2019-05-26T05:20:02.822Z,8084.00
2019-05-26T05:21:02.710Z,6476.00
2019-05-26T05:22:02.607Z,6492.00
2019-05-26T05:23:02.508Z,6668.00
2019-05-26T05:24:02.424Z,7200.00
2019-05-26T05:25:02.319Z,7592.00
2019-05-26T05:26:02.346Z,7408.00
2019-05-26T05:27:02.126Z,7216.00
2019-05-26T05:28:02.032Z,7488.00
2019-05-26T05:29:01.937Z,7832.00
2019-05-26T05:30:01.845Z,7516.00
2019-05-26T05:31:01.761Z,7008.00
2019-05-26T05:32:01.656Z,6896.00
2019-05-26T05:33:01.668Z,7248.00
2019-05-26T05:34:01.468Z,6716.00
2019-05-26T05:35:01.371Z,6512.00
2019-05-26T05:36:01.288Z,6500.00
2019-05-26T05:37:01.182Z,7076.00
2019-05-26T05:38:01.087Z,8124.00
2019-05-26T05:39:00.992Z,8268.00
2019-05-26T05:40:00.897Z,7156.00
2019-05-26T05:41:00.821Z,6572.00
2019-05-26T05:42:00.708Z,6620.00
2019-05-26T05:43:00.618Z,8240.00
2019-05-26T05:44:00.522Z,8940.00
2019-05-26T05:45:00.430Z,8644.00
2019-05-26T05:46:00.344Z,8088.00
2019-05-26T05:47:00.239Z,7608.00
2019-05-26T05:48:00.143Z,7024.00
2019-05-26T05:49:00.050Z,6600.00
2019-05-26T05:49:59.957Z,6940.00
2019-05-26T05:50:59.936Z,7220.00
2019-05-26T05:51:59.765Z,7044.00
2019-05-26T05:52:59.675Z,7416.00
2019-05-26T05:53:59.577Z,7400.00
2019-05-26T05:54:59.483Z,6864.00
2019-05-26T05:55:59.460Z,6676.00
2019-05-26T05:56:59.295Z,6756.00
2019-05-26T05:57:59.203Z,6900.00
2019-05-26T05:58:59.108Z,7196.00
2019-05-26T05:59:59.012Z,7864.00
2019-05-26T06:00:58.934Z,8052.00
2019-05-26T06:01:58.827Z,7668.00
2019-05-26T06:02:58.733Z,7792.00
2019-05-26T06:03:58.639Z,8128.00
2019-05-26T06:04:58.546Z,9220.00
2019-05-26T06:05:58.471Z,9500.00
2019-05-26T06:06:58.380Z,9264.00
2019-05-26T06:07:58.264Z,12876.00
2019-05-26T06:08:58.169Z,13720.00
2019-05-26T06:09:58.076Z,10280.00
2019-05-26T06:10:58.000Z,11340.00
2019-05-26T06:11:57.889Z,13452.00
2019-05-26T06:12:57.796Z,9240.00
2019-05-26T06:13:57.703Z,7616.00
2019-05-26T06:14:57.652Z,7680.00
2019-05-26T06:15:57.530Z,7584.00
2019-05-26T06:16:57.423Z,7268.00
2019-05-26T06:17:57.331Z,7420.00
2019-05-26T06:18:57.237Z,7768.00
2019-05-26T06:19:57.145Z,7696.00
2019-05-26T06:20:57.065Z,7620.00
2019-05-26T06:21:56.963Z,7616.00
2019-05-26T06:22:56.865Z,7676.00
2019-05-26T06:23:56.772Z,7708.00
2019-05-26T06:24:56.679Z,7740.00
2019-05-26T06:25:56.603Z,8124.00
2019-05-26T06:26:56.496Z,8376.00
2019-05-26T06:27:56.474Z,7920.00
2019-05-26T06:28:56.310Z,7996.00
2019-05-26T06:29:59.159Z,8096.00
2019-05-26T06:30:56.125Z,8132.00
2019-05-26T06:31:56.542Z,9016.00
2019-05-26T06:32:55.943Z,9244.00
2019-05-26T06:33:55.849Z,10512.00
2019-05-26T06:34:55.754Z,13180.00
2019-05-26T06:35:55.680Z,15756.00
2019-05-26T06:36:55.571Z,33120.00
2019-05-26T06:37:55.487Z,33408.00
2019-05-26T06:38:55.383Z,25152.00
2019-05-26T06:39:55.291Z,32768.00
2019-05-26T06:40:55.205Z,34016.00
2019-05-26T06:41:55.121Z,28704.00
2019-05-26T06:42:55.117Z,28800.00
2019-05-26T06:43:54.925Z,30624.00
2019-05-26T06:44:54.839Z,30272.00
2019-05-26T06:45:54.785Z,31136.00
2019-05-26T06:46:54.663Z,32704.00
2019-05-26T06:47:54.560Z,33504.00
2019-05-26T06:48:54.467Z,33408.00
2019-05-26T06:49:54.377Z,33280.00
2019-05-26T06:50:54.285Z,35264.00
2019-05-26T06:51:54.207Z,34816.00
2019-05-26T06:52:54.105Z,35936.00
2019-05-26T06:53:54.017Z,35968.00
2019-05-26T06:54:53.925Z,34944.00
2019-05-26T06:55:53.845Z,35424.00
2019-05-26T06:56:53.870Z,35840.00
2019-05-26T06:57:53.656Z,35808.00
2019-05-26T06:58:53.583Z,35296.00
2019-05-26T06:59:53.476Z,35040.00
2019-05-26T07:00:53.450Z,37024.00
2019-05-26T07:01:53.315Z,36992.00
2019-05-26T07:02:53.214Z,36480.00
2019-05-26T07:03:53.230Z,36288.00
2019-05-26T07:04:53.037Z,36128.00
2019-05-26T07:05:52.951Z,36160.00
2019-05-26T07:06:52.874Z,37088.00
2019-05-26T07:07:52.771Z,36896.00
2019-05-26T07:08:52.685Z,37248.00
2019-05-26T07:09:52.598Z,37248.00
2019-05-26T07:10:52.623Z,36832.00
2019-05-26T07:11:59.634Z,36320.00
2019-05-26T07:12:52.336Z,38528.00
2019-05-26T07:13:52.250Z,40800.00
2019-05-26T07:14:52.162Z,39552.00
2019-05-26T07:15:52.077Z,40928.00
2019-05-26T07:16:52.006Z,41344.00
2019-05-26T07:17:52.009Z,42368.00
2019-05-26T07:18:51.827Z,44704.00
2019-05-26T07:19:51.731Z,53312.00
2019-05-26T07:20:51.646Z,60544.00
2019-05-26T07:21:51.573Z,64384.00
2019-05-26T07:22:51.480Z,64832.00
2019-05-26T07:23:51.388Z,65056.00
2019-05-26T07:24:51.408Z,64928.00
2019-05-26T07:25:51.217Z,62368.00
2019-05-26T07:26:51.145Z,61696.00
2019-05-26T07:27:51.050Z,62784.00
2019-05-26T07:28:51.024Z,63488.00
2019-05-26T07:29:50.878Z,65952.00
2019-05-26T07:30:50.809Z,57056.00
2019-05-26T07:31:50.833Z,60512.00
2019-05-26T07:32:50.622Z,63328.00
2019-05-26T07:33:50.538Z,64064.00
2019-05-26T07:34:50.484Z,62272.00
2019-05-26T07:35:50.369Z,59296.00
2019-05-26T07:36:50.287Z,59200.00
2019-05-26T07:37:50.213Z,63872.00
2019-05-26T07:38:50.219Z,65536.00
2019-05-26T07:39:50.031Z,63360.00
2019-05-26T07:40:49.945Z,61952.00
2019-05-26T07:42:08.202Z,65504.00
2019-05-26T07:42:49.811Z,63136.00
2019-05-26T07:43:49.693Z,64960.00
2019-05-26T07:44:49.609Z,65024.00
2019-05-26T07:45:49.626Z,67168.00
2019-05-26T07:46:49.438Z,69696.00
2019-05-26T07:47:49.374Z,71776.00
2019-05-26T07:48:49.273Z,75136.00
2019-05-26T07:49:49.184Z,74624.00
2019-05-26T07:50:49.100Z,80288.00
2019-05-26T07:51:49.017Z,78240.00
2019-05-26T07:52:49.110Z,42976.00
2019-05-26T07:53:48.850Z,72896.00
2019-05-26T07:54:48.764Z,67776.00
2019-05-26T07:55:48.681Z,69920.00
2019-05-26T07:56:48.599Z,71648.00
2019-05-26T07:57:48.527Z,79840.00
2019-05-26T07:58:48.430Z,83584.00
2019-05-26T07:59:48.447Z,89344.00
2019-05-26T08:00:48.263Z,88704.00
2019-05-26T08:01:48.179Z,85280.00
2019-05-26T08:02:48.115Z,69568.00
2019-05-26T08:03:48.014Z,84704.00
2019-05-26T08:04:47.933Z,81152.00
2019-05-26T08:05:47.846Z,84192.00
2019-05-26T08:06:47.763Z,84576.00
2019-05-26T08:07:47.693Z,86528.00
2019-05-26T08:08:47.596Z,86240.00
2019-05-26T08:09:47.514Z,41472.00
2019-05-26T08:10:47.428Z,11812.00
2019-05-26T08:11:47.348Z,12176.00
2019-05-26T08:12:47.278Z,14564.00
2019-05-26T08:13:47.180Z,78624.00
2019-05-26T08:14:47.100Z,82208.00
2019-05-26T08:15:47.025Z,86624.00
2019-05-26T08:16:46.929Z,92896.00
2019-05-26T08:17:46.864Z,100256.00
2019-05-26T08:18:46.764Z,71744.00
2019-05-26T08:19:46.686Z,34368.00
2019-05-26T08:20:46.597Z,32576.00
2019-05-26T08:21:46.513Z,90176.00
2019-05-26T08:22:46.444Z,87136.00
2019-05-26T08:23:46.348Z,86336.00
2019-05-26T08:24:46.265Z,93088.00
2019-05-26T08:25:46.180Z,93696.00
2019-05-26T08:26:46.120Z,103168.00
2019-05-26T08:27:46.015Z,100288.00
2019-05-26T08:28:45.969Z,96896.00
2019-05-26T08:29:45.847Z,98016.00
2019-05-26T08:30:45.767Z,89568.00
2019-05-26T08:31:45.684Z,91008.00
2019-05-26T08:32:45.608Z,90272.00
2019-05-26T08:33:45.531Z,76736.00
2019-05-26T08:34:45.432Z,84352.00
2019-05-26T08:35:45.350Z,85504.00
2019-05-26T08:36:45.266Z,96096.00
2019-05-26T08:37:45.182Z,102112.00
2019-05-26T08:38:45.117Z,94336.00
2019-05-26T08:39:48.306Z,91776.00
2019-05-26T08:40:44.938Z,88736.00
2019-05-26T08:41:44.851Z,84992.00
2019-05-26T08:42:44.964Z,79680.00
2019-05-26T08:43:44.703Z,77984.00
2019-05-26T08:44:44.602Z,90304.00
2019-05-26T08:45:44.521Z,99008.00
2019-05-26T08:46:44.436Z,94048.00
2019-05-26T08:47:44.356Z,35232.00
2019-05-26T08:48:44.288Z,22976.00
2019-05-26T08:49:44.191Z,102464.00
2019-05-26T08:50:44.107Z,33600.00
2019-05-26T08:51:44.023Z,91136.00
2019-05-26T08:52:43.943Z,91872.00
2019-05-26T08:53:43.875Z,103456.00
2019-05-26T08:54:43.776Z,99776.00
2019-05-26T08:55:43.695Z,48800.00
2019-05-26T08:56:43.613Z,17280.00
2019-05-26T08:57:43.528Z,32512.00
2019-05-26T08:58:43.467Z,92160.00
2019-05-26T08:59:43.371Z,97664.00
2019-05-26T09:00:43.346Z,86688.00
2019-05-26T09:01:43.200Z,28992.00
2019-05-26T09:02:43.118Z,101216.00
2019-05-26T09:03:43.047Z,24224.00
2019-05-26T09:04:42.952Z,22368.00
2019-05-26T09:05:42.870Z,21344.00
2019-05-26T09:06:42.788Z,25376.00
2019-05-26T09:07:42.708Z,108576.00
2019-05-26T09:08:42.636Z,66080.00
2019-05-26T09:09:42.539Z,64512.00
2019-05-26T09:10:42.459Z,101248.00
2019-05-26T09:11:42.376Z,107936.00
2019-05-26T09:12:42.289Z,45760.00
2019-05-26T09:13:42.219Z,106304.00
2019-05-26T09:14:42.123Z,28704.00
2019-05-26T09:15:42.045Z,23008.00
2019-05-26T09:16:41.958Z,117440.00
2019-05-26T09:17:41.875Z,118720.00
2019-05-26T09:18:41.802Z,116000.00
2019-05-26T09:19:41.707Z,110752.00
2019-05-26T09:20:41.621Z,111424.00
2019-05-26T09:21:41.562Z,104032.00
2019-05-26T09:22:41.566Z,40896.00
2019-05-26T09:23:41.387Z,103680.00
2019-05-26T09:24:41.288Z,44640.00
2019-05-26T09:25:41.206Z,92544.00
2019-05-26T09:26:41.127Z,31072.00
2019-05-26T09:27:41.040Z,95200.00
2019-05-26T09:28:40.971Z,100640.00
2019-05-26T09:29:40.871Z,26176.00
2019-05-26T09:30:40.789Z,104640.00
2019-05-26T09:31:40.711Z,98240.00
2019-05-26T09:32:40.623Z,97504.00
2019-05-26T09:33:40.554Z,96960.00
2019-05-26T09:34:40.460Z,25536.00
2019-05-26T09:35:40.377Z,110688.00
2019-05-26T09:36:40.292Z,92096.00
2019-05-26T09:37:40.208Z,103744.00
2019-05-26T09:38:40.128Z,33984.00
2019-05-26T09:39:40.058Z,26848.00
2019-05-26T09:40:39.961Z,118752.00
2019-05-26T09:41:39.878Z,121728.00
2019-05-26T09:42:39.794Z,28736.00
2019-05-26T09:43:39.817Z,21728.00
2019-05-26T09:44:39.647Z,42592.00
2019-05-26T09:45:39.548Z,95904.00
2019-05-26T09:46:39.474Z,74624.00
2019-05-26T09:47:39.381Z,98144.00
2019-05-26T09:48:39.299Z,85728.00
2019-05-26T09:49:39.239Z,105152.00
2019-05-26T09:50:39.252Z,103456.00
2019-05-26T09:51:39.049Z,103744.00
2019-05-26T09:52:38.962Z,84288.00
2019-05-26T09:53:38.885Z,100448.00
2019-05-26T09:54:38.810Z,101376.00
2019-05-26T09:55:38.716Z,22208.00
2019-05-26T09:56:38.632Z,52704.00
2019-05-26T09:57:38.546Z,25024.00
2019-05-26T09:58:38.471Z,104064.00
2019-05-26T09:59:38.398Z,35232.00
2019-05-26T10:00:38.298Z,27392.00
2019-05-26T10:01:38.215Z,68416.00
2019-05-26T10:02:38.136Z,105856.00
2019-05-26T10:03:38.055Z,105472.00
2019-05-26T10:04:38.194Z,105056.00
2019-05-26T10:05:37.882Z,101376.00
2019-05-26T10:06:37.798Z,95424.00
2019-05-26T10:07:37.715Z,90560.00
2019-05-26T10:08:37.646Z,82912.00
2019-05-26T10:09:37.563Z,80896.00
2019-05-26T10:10:37.467Z,84032.00
2019-05-26T10:11:37.385Z,78752.00
2019-05-26T10:12:37.301Z,82976.00
2019-05-26T10:13:37.220Z,77792.00
2019-05-26T10:14:37.147Z,83264.00
2019-05-26T10:15:37.053Z,83360.00
2019-05-26T10:16:36.976Z,81664.00
2019-05-26T10:17:36.901Z,75552.00
2019-05-26T10:18:36.808Z,72928.00
2019-05-26T10:19:36.750Z,72512.00
2019-05-26T10:20:36.671Z,69952.00
2019-05-26T10:21:36.559Z,70912.00
2019-05-26T10:22:36.475Z,73248.00
2019-05-26T10:23:36.392Z,80960.00
2019-05-26T10:24:36.323Z,84544.00
2019-05-26T10:25:36.344Z,87712.00
2019-05-26T10:26:36.144Z,91424.00
2019-05-26T10:27:36.062Z,22048.00
2019-05-26T10:28:35.980Z,19296.00
2019-05-26T10:29:35.914Z,22080.00
2019-05-26T10:30:35.815Z,19264.00
2019-05-26T10:31:35.734Z,102272.00
2019-05-26T10:32:35.795Z,104416.00
2019-05-26T10:33:35.571Z,105344.00
2019-05-26T10:34:35.499Z,51488.00
2019-05-26T10:35:35.405Z,22944.00
2019-05-26T10:36:35.321Z,50816.00
2019-05-26T10:37:35.253Z,115104.00
2019-05-26T10:38:35.155Z,66208.00
2019-05-26T10:39:35.194Z,21952.00
2019-05-26T10:40:34.989Z,17200.00
2019-05-26T10:41:34.907Z,18272.00
2019-05-26T10:42:34.831Z,115456.00
2019-05-26T10:43:46.915Z,100832.00
2019-05-26T10:44:34.669Z,106784.00
2019-05-26T10:45:34.603Z,111648.00
2019-05-26T10:46:34.486Z,98784.00
2019-05-26T10:47:34.401Z,100128.00
2019-05-26T10:48:34.318Z,88480.00
2019-05-26T10:49:34.248Z,96928.00
2019-05-26T10:50:34.151Z,48416.00
2019-05-26T10:51:34.068Z,65344.00
2019-05-26T10:52:33.984Z,99776.00
2019-05-26T10:53:33.899Z,98080.00
2019-05-26T10:54:33.838Z,92256.00
2019-05-26T10:55:33.738Z,97760.00
2019-05-26T10:56:33.652Z,87328.00
2019-05-26T10:57:33.567Z,74688.00
2019-05-26T10:58:33.487Z,72736.00
2019-05-26T10:59:33.420Z,72352.00
2019-05-26T11:00:33.400Z,71584.00
2019-05-26T11:01:33.237Z,72672.00
2019-05-26T11:02:33.155Z,81056.00
2019-05-26T11:03:33.072Z,84576.00
2019-05-26T11:04:32.992Z,75392.00
2019-05-26T11:05:32.922Z,94560.00
2019-05-26T11:06:32.826Z,79104.00
2019-05-26T11:07:32.753Z,43072.00
2019-05-26T11:08:32.661Z,39200.00
2019-05-26T11:09:32.579Z,107200.00
2019-05-26T11:10:32.510Z,96064.00
2019-05-26T11:11:32.413Z,105408.00
2019-05-26T11:12:32.333Z,102848.00
2019-05-26T11:13:32.267Z,108032.00
2019-05-26T11:14:32.184Z,108928.00
2019-05-26T11:15:32.101Z,102464.00
2019-05-26T11:16:32.004Z,105248.00
2019-05-26T11:17:31.915Z,108096.00
2019-05-26T11:18:31.842Z,100800.00
2019-05-26T11:19:31.754Z,99776.00
2019-05-26T11:20:31.687Z,101632.00
2019-05-26T11:21:31.607Z,96704.00
2019-05-26T11:22:31.504Z,104640.00
2019-05-26T11:23:31.459Z,109984.00
2019-05-26T11:24:31.348Z,115904.00
2019-05-26T11:25:31.275Z,115744.00
2019-05-26T11:26:31.176Z,110816.00
2019-05-26T11:27:31.093Z,111040.00
2019-05-26T11:28:31.014Z,118208.00
2019-05-26T11:29:30.930Z,113920.00
2019-05-26T11:30:30.861Z,101952.00
2019-05-26T11:31:30.766Z,108992.00
2019-05-26T11:32:30.685Z,105024.00
2019-05-26T11:33:30.602Z,103584.00
2019-05-26T11:34:30.523Z,101600.00
2019-05-26T11:35:30.453Z,106144.00
2019-05-26T11:36:30.366Z,105024.00
2019-05-26T11:37:30.277Z,105856.00
2019-05-26T11:38:33.240Z,116352.00
2019-05-26T11:39:30.117Z,109920.00
2019-05-26T11:40:30.048Z,103360.00
2019-05-26T11:41:29.955Z,100736.00
2019-05-26T11:42:29.871Z,87904.00
2019-05-26T11:43:29.788Z,101600.00
2019-05-26T11:44:29.710Z,104512.00
2019-05-26T11:45:29.641Z,113440.00
2019-05-26T11:46:29.545Z,113504.00
2019-05-26T11:47:29.468Z,30464.00
2019-05-26T11:48:29.385Z,119424.00
2019-05-26T11:49:29.303Z,120640.00
2019-05-26T11:50:29.239Z,23904.00
2019-05-26T11:51:29.145Z,124640.00
2019-05-26T11:52:29.062Z,109856.00
2019-05-26T11:53:28.977Z,112928.00
2019-05-26T11:54:28.899Z,106752.00
2019-05-26T11:55:28.831Z,65696.00
2019-05-26T11:56:28.845Z,108960.00
2019-05-26T11:57:28.653Z,25120.00
2019-05-26T11:58:28.573Z,106624.00
2019-05-26T11:59:28.493Z,102464.00
2019-05-26T12:00:28.424Z,25024.00
2019-05-26T12:01:28.333Z,69024.00
2019-05-26T12:02:28.246Z,116128.00
2019-05-26T12:03:28.165Z,110432.00
2019-05-26T12:04:28.084Z,117664.00
2019-05-26T12:05:28.004Z,108832.00
2019-05-26T12:06:27.936Z,98464.00
2019-05-26T12:07:27.837Z,108096.00
2019-05-26T12:08:27.757Z,93184.00